sensor_id;sensor_type;location;lat;lon;timestamp;P1;durP1;ratioP1;P2;durP2;ratioP2
12554;SDS011;6343;50.868;4.700;2023-06-24T00:02:09;9.20;;;5.43;;
12554;SDS011;6343;50.868;4.700;2023-06-24T00:04:35;8.70;;;5.97;;
12554;SDS011;6343;50.868;4.700;2023-06-24T00:07:06;6.77;;;4.93;;
12554;SDS011;6343;50.868;4.700;2023-06-24T00:09:32;5.27;;;4.77;;
12554;SDS011;6343;50.868;4.700;2023-06-24T00:11:59;8.37;;;5.10;;
12554;SDS011;6343;50.868;4.700;2023-06-24T00:14:26;7.20;;;5.30;;
12554;SDS011;6343;50.868;4.700;2023-06-24T00:16:52;10.03;;;5.47;;
12554;SDS011;6343;50.868;4.700;2023-06-24T00:19:19;6.27;;;5.37;;
12554;SDS011;6343;50.868;4.700;2023-06-24T00:21:46;7.87;;;5.20;;
12554;SDS011;6343;50.868;4.700;2023-06-24T00:24:12;7.67;;;5.17;;
12554;SDS011;6343;50.868;4.700;2023-06-24T00:26:38;8.37;;;5.43;;
12554;SDS011;6343;50.868;4.700;2023-06-24T00:29:04;7.93;;;5.20;;
12554;SDS011;6343;50.868;4.700;2023-06-24T00:31:30;7.87;;;5.57;;
12554;SDS011;6343;50.868;4.700;2023-06-24T00:33:56;9.47;;;5.70;;
12554;SDS011;6343;50.868;4.700;2023-06-24T00:36:22;7.37;;;5.47;;
12554;SDS011;6343;50.868;4.700;2023-06-24T00:38:48;8.83;;;5.93;;
12554;SDS011;6343;50.868;4.700;2023-06-24T00:41:15;7.43;;;5.47;;
12554;SDS011;6343;50.868;4.700;2023-06-24T00:43:43;9.70;;;5.47;;
12554;SDS011;6343;50.868;4.700;2023-06-24T00:46:10;6.63;;;4.90;;
12554;SDS011;6343;50.868;4.700;2023-06-24T00:48:36;6.90;;;5.30;;
12554;SDS011;6343;50.868;4.700;2023-06-24T00:51:02;8.57;;;5.67;;
12554;SDS011;6343;50.868;4.700;2023-06-24T00:53:28;7.47;;;5.87;;
12554;SDS011;6343;50.868;4.700;2023-06-24T00:55:55;7.37;;;5.43;;
12554;SDS011;6343;50.868;4.700;2023-06-24T00:58:27;8.83;;;5.17;;
12554;SDS011;6343;50.868;4.700;2023-06-24T01:00:55;9.93;;;5.00;;
12554;SDS011;6343;50.868;4.700;2023-06-24T01:03:23;7.43;;;4.83;;
12554;SDS011;6343;50.868;4.700;2023-06-24T01:05:50;6.00;;;4.83;;
12554;SDS011;6343;50.868;4.700;2023-06-24T01:08:17;6.63;;;4.73;;
12554;SDS011;6343;50.868;4.700;2023-06-24T01:10:44;8.50;;;5.03;;
12554;SDS011;6343;50.868;4.700;2023-06-24T01:13:10;10.07;;;5.10;;
12554;SDS011;6343;50.868;4.700;2023-06-24T01:15:36;10.47;;;4.83;;
12554;SDS011;6343;50.868;4.700;2023-06-24T01:34:01;46.50;;;30.83;;
12554;SDS011;6343;50.868;4.700;2023-06-24T01:36:28;62.93;;;44.10;;
12554;SDS011;6343;50.868;4.700;2023-06-24T01:38:56;9.80;;;5.37;;
12554;SDS011;6343;50.868;4.700;2023-06-24T01:41:24;7.27;;;5.83;;
12554;SDS011;6343;50.868;4.700;2023-06-24T01:43:51;42.87;;;27.90;;
12554;SDS011;6343;50.868;4.700;2023-06-24T01:46:21;63.13;;;39.63;;
12554;SDS011;6343;50.868;4.700;2023-06-24T01:48:47;94.33;;;57.47;;
12554;SDS011;6343;50.868;4.700;2023-06-24T01:51:20;40.43;;;23.13;;
12554;SDS011;6343;50.868;4.700;2023-06-24T01:53:54;12.97;;;7.67;;
12554;SDS011;6343;50.868;4.700;2023-06-24T01:56:23;7.90;;;5.57;;
12554;SDS011;6343;50.868;4.700;2023-06-24T01:58:52;7.57;;;5.90;;
12554;SDS011;6343;50.868;4.700;2023-06-24T02:01:18;16.40;;;10.50;;
12554;SDS011;6343;50.868;4.700;2023-06-24T02:03:45;14.63;;;10.03;;
12554;SDS011;6343;50.868;4.700;2023-06-24T02:06:13;16.20;;;8.80;;
12554;SDS011;6343;50.868;4.700;2023-06-24T02:08:40;9.23;;;5.83;;
12554;SDS011;6343;50.868;4.700;2023-06-24T02:11:07;7.17;;;5.63;;
12554;SDS011;6343;50.868;4.700;2023-06-24T02:13:34;8.77;;;6.10;;
12554;SDS011;6343;50.868;4.700;2023-06-24T02:16:01;7.93;;;5.63;;
12554;SDS011;6343;50.868;4.700;2023-06-24T02:18:28;7.03;;;4.50;;
12554;SDS011;6343;50.868;4.700;2023-06-24T02:20:55;6.60;;;4.67;;
12554;SDS011;6343;50.868;4.700;2023-06-24T02:23:22;6.80;;;4.20;;
12554;SDS011;6343;50.868;4.700;2023-06-24T02:25:49;6.53;;;3.90;;
12554;SDS011;6343;50.868;4.700;2023-06-24T02:28:15;4.67;;;4.00;;
12554;SDS011;6343;50.868;4.700;2023-06-24T02:30:42;5.20;;;4.30;;
12554;SDS011;6343;50.868;4.700;2023-06-24T02:33:09;6.53;;;5.20;;
12554;SDS011;6343;50.868;4.700;2023-06-24T02:35:37;8.73;;;4.60;;
12554;SDS011;6343;50.868;4.700;2023-06-24T02:38:03;8.07;;;4.50;;
12554;SDS011;6343;50.868;4.700;2023-06-24T02:40:29;5.17;;;4.47;;
12554;SDS011;6343;50.868;4.700;2023-06-24T02:42:56;6.20;;;4.60;;
12554;SDS011;6343;50.868;4.700;2023-06-24T02:45:22;8.03;;;4.37;;
12554;SDS011;6343;50.868;4.700;2023-06-24T02:47:48;5.90;;;4.30;;
12554;SDS011;6343;50.868;4.700;2023-06-24T02:50:15;8.53;;;4.40;;
12554;SDS011;6343;50.868;4.700;2023-06-24T02:52:42;6.83;;;4.20;;
12554;SDS011;6343;50.868;4.700;2023-06-24T02:55:08;6.23;;;5.03;;
12554;SDS011;6343;50.868;4.700;2023-06-24T02:57:35;5.77;;;4.53;;
12554;SDS011;6343;50.868;4.700;2023-06-24T03:00:02;7.57;;;4.30;;
12554;SDS011;6343;50.868;4.700;2023-06-24T03:02:38;6.17;;;4.07;;
12554;SDS011;6343;50.868;4.700;2023-06-24T03:05:04;5.63;;;4.33;;
12554;SDS011;6343;50.868;4.700;2023-06-24T03:07:31;4.50;;;3.90;;
12554;SDS011;6343;50.868;4.700;2023-06-24T03:10:00;6.67;;;4.07;;
12554;SDS011;6343;50.868;4.700;2023-06-24T03:12:28;7.27;;;4.23;;
12554;SDS011;6343;50.868;4.700;2023-06-24T03:14:54;4.80;;;3.53;;
12554;SDS011;6343;50.868;4.700;2023-06-24T03:17:20;5.73;;;3.90;;
12554;SDS011;6343;50.868;4.700;2023-06-24T03:19:46;6.67;;;3.77;;
12554;SDS011;6343;50.868;4.700;2023-06-24T03:22:12;6.03;;;4.03;;
12554;SDS011;6343;50.868;4.700;2023-06-24T03:24:38;5.90;;;4.00;;
12554;SDS011;6343;50.868;4.700;2023-06-24T03:27:04;4.87;;;3.63;;
12554;SDS011;6343;50.868;4.700;2023-06-24T03:29:31;6.70;;;4.27;;
12554;SDS011;6343;50.868;4.700;2023-06-24T03:31:57;7.20;;;4.07;;
12554;SDS011;6343;50.868;4.700;2023-06-24T03:34:23;6.83;;;4.40;;
12554;SDS011;6343;50.868;4.700;2023-06-24T03:36:49;4.80;;;4.10;;
12554;SDS011;6343;50.868;4.700;2023-06-24T03:39:16;5.83;;;3.80;;
12554;SDS011;6343;50.868;4.700;2023-06-24T03:41:42;5.60;;;3.80;;
12554;SDS011;6343;50.868;4.700;2023-06-24T03:44:08;5.87;;;3.70;;
12554;SDS011;6343;50.868;4.700;2023-06-24T03:46:34;4.60;;;4.00;;
12554;SDS011;6343;50.868;4.700;2023-06-24T03:49:00;5.67;;;4.10;;
12554;SDS011;6343;50.868;4.700;2023-06-24T03:51:26;7.60;;;4.33;;
12554;SDS011;6343;50.868;4.700;2023-06-24T03:53:52;5.60;;;3.87;;
12554;SDS011;6343;50.868;4.700;2023-06-24T03:56:18;6.47;;;3.77;;
12554;SDS011;6343;50.868;4.700;2023-06-24T03:58:44;4.67;;;3.67;;
12554;SDS011;6343;50.868;4.700;2023-06-24T04:01:10;5.33;;;4.23;;
12554;SDS011;6343;50.868;4.700;2023-06-24T04:03:36;6.33;;;3.80;;
12554;SDS011;6343;50.868;4.700;2023-06-24T04:06:02;5.70;;;3.87;;
12554;SDS011;6343;50.868;4.700;2023-06-24T04:08:29;4.00;;;3.60;;
12554;SDS011;6343;50.868;4.700;2023-06-24T04:10:58;6.97;;;4.13;;
12554;SDS011;6343;50.868;4.700;2023-06-24T04:13:31;6.13;;;3.73;;
12554;SDS011;6343;50.868;4.700;2023-06-24T04:15:57;7.40;;;4.20;;
12554;SDS011;6343;50.868;4.700;2023-06-24T04:18:23;6.83;;;4.00;;
12554;SDS011;6343;50.868;4.700;2023-06-24T04:20:50;5.93;;;3.60;;
12554;SDS011;6343;50.868;4.700;2023-06-24T04:23:16;5.00;;;3.90;;
12554;SDS011;6343;50.868;4.700;2023-06-24T04:25:42;6.73;;;3.83;;
12554;SDS011;6343;50.868;4.700;2023-06-24T04:28:08;4.50;;;3.90;;
12554;SDS011;6343;50.868;4.700;2023-06-24T04:30:34;6.43;;;3.60;;
12554;SDS011;6343;50.868;4.700;2023-06-24T04:33:01;5.67;;;4.10;;
12554;SDS011;6343;50.868;4.700;2023-06-24T04:35:27;6.90;;;4.17;;
12554;SDS011;6343;50.868;4.700;2023-06-24T04:37:55;7.10;;;3.83;;
12554;SDS011;6343;50.868;4.700;2023-06-24T04:40:21;4.37;;;3.30;;
12554;SDS011;6343;50.868;4.700;2023-06-24T04:42:47;5.60;;;3.70;;
12554;SDS011;6343;50.868;4.700;2023-06-24T04:45:14;7.97;;;3.43;;
12554;SDS011;6343;50.868;4.700;2023-06-24T04:47:40;6.10;;;3.30;;
12554;SDS011;6343;50.868;4.700;2023-06-24T04:50:06;3.87;;;3.47;;
12554;SDS011;6343;50.868;4.700;2023-06-24T04:52:35;6.50;;;3.67;;
12554;SDS011;6343;50.868;4.700;2023-06-24T04:55:01;4.63;;;4.00;;
12554;SDS011;6343;50.868;4.700;2023-06-24T04:57:31;6.57;;;3.90;;
12554;SDS011;6343;50.868;4.700;2023-06-24T04:59:57;7.13;;;3.87;;
12554;SDS011;6343;50.868;4.700;2023-06-24T05:02:24;5.10;;;3.60;;
12554;SDS011;6343;50.868;4.700;2023-06-24T05:04:51;4.50;;;3.60;;
12554;SDS011;6343;50.868;4.700;2023-06-24T05:07:17;4.27;;;2.97;;
12554;SDS011;6343;50.868;4.700;2023-06-24T05:09:45;5.27;;;3.30;;
12554;SDS011;6343;50.868;4.700;2023-06-24T05:12:12;7.07;;;3.83;;
12554;SDS011;6343;50.868;4.700;2023-06-24T05:14:38;8.70;;;3.20;;
12554;SDS011;6343;50.868;4.700;2023-06-24T05:17:04;4.07;;;3.40;;
12554;SDS011;6343;50.868;4.700;2023-06-24T05:19:30;4.70;;;3.53;;
12554;SDS011;6343;50.868;4.700;2023-06-24T05:21:56;7.10;;;3.90;;
12554;SDS011;6343;50.868;4.700;2023-06-24T05:24:22;4.47;;;3.40;;
12554;SDS011;6343;50.868;4.700;2023-06-24T05:26:49;4.57;;;3.20;;
12554;SDS011;6343;50.868;4.700;2023-06-24T05:29:15;7.33;;;3.67;;
12554;SDS011;6343;50.868;4.700;2023-06-24T05:31:41;5.03;;;3.90;;
12554;SDS011;6343;50.868;4.700;2023-06-24T05:34:07;5.53;;;3.17;;
12554;SDS011;6343;50.868;4.700;2023-06-24T05:36:34;5.67;;;3.37;;
12554;SDS011;6343;50.868;4.700;2023-06-24T05:39:00;7.67;;;3.80;;
12554;SDS011;6343;50.868;4.700;2023-06-24T05:41:26;3.80;;;2.90;;
12554;SDS011;6343;50.868;4.700;2023-06-24T05:44:06;7.63;;;3.27;;
12554;SDS011;6343;50.868;4.700;2023-06-24T05:46:32;4.13;;;2.97;;
12554;SDS011;6343;50.868;4.700;2023-06-24T05:48:58;6.10;;;3.03;;
12554;SDS011;6343;50.868;4.700;2023-06-24T05:51:24;4.37;;;3.00;;
12554;SDS011;6343;50.868;4.700;2023-06-24T05:53:50;5.60;;;3.00;;
12554;SDS011;6343;50.868;4.700;2023-06-24T05:56:17;6.37;;;3.13;;
12554;SDS011;6343;50.868;4.700;2023-06-24T05:58:43;5.80;;;2.60;;
12554;SDS011;6343;50.868;4.700;2023-06-24T06:01:09;5.37;;;3.00;;
12554;SDS011;6343;50.868;4.700;2023-06-24T06:03:35;10.17;;;3.67;;
12554;SDS011;6343;50.868;4.700;2023-06-24T06:06:01;2.93;;;2.60;;
12554;SDS011;6343;50.868;4.700;2023-06-24T06:08:28;5.80;;;3.00;;
12554;SDS011;6343;50.868;4.700;2023-06-24T06:10:54;3.87;;;2.60;;
12554;SDS011;6343;50.868;4.700;2023-06-24T06:13:20;5.40;;;2.47;;
12554;SDS011;6343;50.868;4.700;2023-06-24T06:15:46;6.33;;;2.93;;
12554;SDS011;6343;50.868;4.700;2023-06-24T06:18:12;4.00;;;2.77;;
12554;SDS011;6343;50.868;4.700;2023-06-24T06:20:38;6.90;;;2.77;;
12554;SDS011;6343;50.868;4.700;2023-06-24T06:23:04;5.20;;;2.80;;
12554;SDS011;6343;50.868;4.700;2023-06-24T06:25:30;3.73;;;2.77;;
12554;SDS011;6343;50.868;4.700;2023-06-24T06:27:56;3.90;;;2.63;;
12554;SDS011;6343;50.868;4.700;2023-06-24T06:30:23;5.27;;;2.90;;
12554;SDS011;6343;50.868;4.700;2023-06-24T06:32:49;3.23;;;2.50;;
12554;SDS011;6343;50.868;4.700;2023-06-24T06:35:15;5.33;;;3.03;;
12554;SDS011;6343;50.868;4.700;2023-06-24T06:37:41;5.23;;;2.70;;
12554;SDS011;6343;50.868;4.700;2023-06-24T06:40:07;7.53;;;3.37;;
12554;SDS011;6343;50.868;4.700;2023-06-24T06:42:33;3.65;;;2.47;;
12554;SDS011;6343;50.868;4.700;2023-06-24T06:45:00;3.60;;;2.47;;
12554;SDS011;6343;50.868;4.700;2023-06-24T06:47:26;3.08;;;2.75;;
12554;SDS011;6343;50.868;4.700;2023-06-24T06:49:52;3.22;;;2.38;;
12554;SDS011;6343;50.868;4.700;2023-06-24T06:52:18;4.00;;;2.80;;
12554;SDS011;6343;50.868;4.700;2023-06-24T06:54:44;7.47;;;3.53;;
12554;SDS011;6343;50.868;4.700;2023-06-24T06:57:10;3.22;;;2.35;;
12554;SDS011;6343;50.868;4.700;2023-06-24T06:59:36;5.78;;;2.60;;
12554;SDS011;6343;50.868;4.700;2023-06-24T07:02:02;3.35;;;2.55;;
12554;SDS011;6343;50.868;4.700;2023-06-24T07:04:28;3.05;;;2.75;;
12554;SDS011;6343;50.868;4.700;2023-06-24T07:06:55;3.58;;;2.50;;
12554;SDS011;6343;50.868;4.700;2023-06-24T07:09:22;3.00;;;2.63;;
12554;SDS011;6343;50.868;4.700;2023-06-24T07:11:48;5.32;;;2.97;;
12554;SDS011;6343;50.868;4.700;2023-06-24T07:14:14;4.60;;;2.80;;
12554;SDS011;6343;50.868;4.700;2023-06-24T07:16:40;5.53;;;2.95;;
12554;SDS011;6343;50.868;4.700;2023-06-24T07:19:06;4.50;;;2.63;;
12554;SDS011;6343;50.868;4.700;2023-06-24T07:21:32;6.07;;;2.78;;
12554;SDS011;6343;50.868;4.700;2023-06-24T07:23:58;5.82;;;2.42;;
12554;SDS011;6343;50.868;4.700;2023-06-24T07:26:24;11.15;;;2.85;;
12554;SDS011;6343;50.868;4.700;2023-06-24T07:28:53;3.65;;;2.40;;
12554;SDS011;6343;50.868;4.700;2023-06-24T07:31:19;5.40;;;2.33;;
12554;SDS011;6343;50.868;4.700;2023-06-24T07:33:45;4.07;;;2.33;;
12554;SDS011;6343;50.868;4.700;2023-06-24T07:36:11;3.08;;;2.22;;
12554;SDS011;6343;50.868;4.700;2023-06-24T07:38:38;6.05;;;2.85;;
12554;SDS011;6343;50.868;4.700;2023-06-24T07:41:04;4.13;;;2.60;;
12554;SDS011;6343;50.868;4.700;2023-06-24T07:43:30;3.15;;;2.65;;
12554;SDS011;6343;50.868;4.700;2023-06-24T07:45:56;3.53;;;2.50;;
12554;SDS011;6343;50.868;4.700;2023-06-24T07:48:22;3.30;;;2.08;;
12554;SDS011;6343;50.868;4.700;2023-06-24T07:50:49;3.25;;;2.45;;
12554;SDS011;6343;50.868;4.700;2023-06-24T07:53:15;3.25;;;2.20;;
12554;SDS011;6343;50.868;4.700;2023-06-24T07:55:41;5.68;;;2.10;;
12554;SDS011;6343;50.868;4.700;2023-06-24T07:58:07;3.90;;;2.30;;
12554;SDS011;6343;50.868;4.700;2023-06-24T08:00:33;2.63;;;2.33;;
12554;SDS011;6343;50.868;4.700;2023-06-24T08:02:59;3.50;;;2.13;;
12554;SDS011;6343;50.868;4.700;2023-06-24T08:05:26;2.70;;;2.00;;
12554;SDS011;6343;50.868;4.700;2023-06-24T08:07:52;4.47;;;1.98;;
12554;SDS011;6343;50.868;4.700;2023-06-24T08:10:18;2.17;;;1.95;;
12554;SDS011;6343;50.868;4.700;2023-06-24T08:12:44;3.22;;;2.00;;
12554;SDS011;6343;50.868;4.700;2023-06-24T08:15:10;5.32;;;2.60;;
12554;SDS011;6343;50.868;4.700;2023-06-24T08:17:36;5.40;;;2.53;;
12554;SDS011;6343;50.868;4.700;2023-06-24T08:20:02;2.50;;;2.00;;
12554;SDS011;6343;50.868;4.700;2023-06-24T08:22:29;5.10;;;2.17;;
12554;SDS011;6343;50.868;4.700;2023-06-24T08:24:55;5.32;;;1.98;;
12554;SDS011;6343;50.868;4.700;2023-06-24T08:27:21;2.75;;;1.98;;
12554;SDS011;6343;50.868;4.700;2023-06-24T08:29:47;3.85;;;2.15;;
12554;SDS011;6343;50.868;4.700;2023-06-24T08:32:13;2.35;;;2.15;;
12554;SDS011;6343;50.868;4.700;2023-06-24T08:34:39;4.45;;;1.75;;
12554;SDS011;6343;50.868;4.700;2023-06-24T08:37:05;2.42;;;1.80;;
12554;SDS011;6343;50.868;4.700;2023-06-24T08:39:31;3.75;;;2.17;;
12554;SDS011;6343;50.868;4.700;2023-06-24T08:41:58;4.10;;;2.00;;
12554;SDS011;6343;50.868;4.700;2023-06-24T08:44:24;1.75;;;1.63;;
12554;SDS011;6343;50.868;4.700;2023-06-24T08:46:50;2.40;;;1.60;;
12554;SDS011;6343;50.868;4.700;2023-06-24T08:49:25;2.10;;;1.67;;
12554;SDS011;6343;50.868;4.700;2023-06-24T08:54:24;3.58;;;2.00;;
12554;SDS011;6343;50.868;4.700;2023-06-24T08:56:50;3.85;;;1.90;;
12554;SDS011;6343;50.868;4.700;2023-06-24T08:59:16;2.10;;;1.90;;
12554;SDS011;6343;50.868;4.700;2023-06-24T09:01:45;2.05;;;1.60;;
12554;SDS011;6343;50.868;4.700;2023-06-24T09:04:11;7.05;;;2.15;;
12554;SDS011;6343;50.868;4.700;2023-06-24T09:06:37;3.13;;;1.58;;
12554;SDS011;6343;50.868;4.700;2023-06-24T09:09:03;2.75;;;1.77;;
12554;SDS011;6343;50.868;4.700;2023-06-24T09:11:30;4.25;;;1.90;;
12554;SDS011;6343;50.868;4.700;2023-06-24T09:13:58;4.90;;;1.85;;
12554;SDS011;6343;50.868;4.700;2023-06-24T09:16:24;2.67;;;2.03;;
12554;SDS011;6343;50.868;4.700;2023-06-24T09:18:51;2.97;;;2.00;;
12554;SDS011;6343;50.868;4.700;2023-06-24T09:21:24;2.70;;;1.73;;
12554;SDS011;6343;50.868;4.700;2023-06-24T09:23:52;3.03;;;1.98;;
12554;SDS011;6343;50.868;4.700;2023-06-24T09:26:18;4.90;;;2.05;;
12554;SDS011;6343;50.868;4.700;2023-06-24T09:28:49;2.60;;;1.73;;
12554;SDS011;6343;50.868;4.700;2023-06-24T09:31:16;2.65;;;1.77;;
12554;SDS011;6343;50.868;4.700;2023-06-24T09:33:43;2.00;;;1.27;;
12554;SDS011;6343;50.868;4.700;2023-06-24T09:36:13;2.67;;;1.70;;
12554;SDS011;6343;50.868;4.700;2023-06-24T09:38:40;2.60;;;1.80;;
12554;SDS011;6343;50.868;4.700;2023-06-24T09:41:07;3.60;;;1.80;;
12554;SDS011;6343;50.868;4.700;2023-06-24T09:43:37;4.70;;;1.85;;
12554;SDS011;6343;50.868;4.700;2023-06-24T09:46:07;3.05;;;1.73;;
12554;SDS011;6343;50.868;4.700;2023-06-24T09:48:33;2.50;;;1.70;;
12554;SDS011;6343;50.868;4.700;2023-06-24T09:51:00;2.67;;;1.80;;
12554;SDS011;6343;50.868;4.700;2023-06-24T09:53:31;2.88;;;1.98;;
12554;SDS011;6343;50.868;4.700;2023-06-24T09:56:02;4.55;;;1.70;;
12554;SDS011;6343;50.868;4.700;2023-06-24T09:58:32;4.05;;;1.80;;
12554;SDS011;6343;50.868;4.700;2023-06-24T10:01:01;1.77;;;1.52;;
12554;SDS011;6343;50.868;4.700;2023-06-24T10:03:29;1.80;;;1.50;;
12554;SDS011;6343;50.868;4.700;2023-06-24T10:05:55;8.90;;;1.98;;
12554;SDS011;6343;50.868;4.700;2023-06-24T10:08:21;5.47;;;2.03;;
12554;SDS011;6343;50.868;4.700;2023-06-24T10:10:47;2.47;;;1.80;;
12554;SDS011;6343;50.868;4.700;2023-06-24T10:13:14;2.97;;;1.65;;
12554;SDS011;6343;50.868;4.700;2023-06-24T10:15:40;4.50;;;1.75;;
12554;SDS011;6343;50.868;4.700;2023-06-24T10:20:51;1.70;;;1.50;;
12554;SDS011;6343;50.868;4.700;2023-06-24T10:23:17;1.70;;;1.52;;
12554;SDS011;6343;50.868;4.700;2023-06-24T10:25:43;2.30;;;1.70;;
12554;SDS011;6343;50.868;4.700;2023-06-24T10:28:12;2.97;;;2.42;;
12554;SDS011;6343;50.868;4.700;2023-06-24T10:30:38;6.07;;;2.70;;
12554;SDS011;6343;50.868;4.700;2023-06-24T10:33:08;2.13;;;1.60;;
12554;SDS011;6343;50.868;4.700;2023-06-24T10:35:37;2.70;;;1.70;;
12554;SDS011;6343;50.868;4.700;2023-06-24T10:38:09;2.65;;;1.95;;
12554;SDS011;6343;50.868;4.700;2023-06-24T10:40:36;5.50;;;1.67;;
12554;SDS011;6343;50.868;4.700;2023-06-24T10:43:22;2.80;;;1.75;;
12554;SDS011;6343;50.868;4.700;2023-06-24T10:45:52;2.33;;;1.60;;
12554;SDS011;6343;50.868;4.700;2023-06-24T10:48:19;4.70;;;1.92;;
12554;SDS011;6343;50.868;4.700;2023-06-24T10:50:45;2.10;;;1.55;;
12554;SDS011;6343;50.868;4.700;2023-06-24T10:53:12;4.75;;;1.80;;
12554;SDS011;6343;50.868;4.700;2023-06-24T10:55:38;2.17;;;1.80;;
12554;SDS011;6343;50.868;4.700;2023-06-24T10:58:12;1.98;;;1.30;;
12554;SDS011;6343;50.868;4.700;2023-06-24T11:00:39;2.33;;;1.60;;
12554;SDS011;6343;50.868;4.700;2023-06-24T11:03:13;2.05;;;1.52;;
12554;SDS011;6343;50.868;4.700;2023-06-24T11:05:40;2.30;;;1.50;;
12554;SDS011;6343;50.868;4.700;2023-06-24T11:08:07;2.78;;;1.60;;
12554;SDS011;6343;50.868;4.700;2023-06-24T11:10:33;2.53;;;1.77;;
12554;SDS011;6343;50.868;4.700;2023-06-24T11:13:07;4.57;;;1.90;;
12554;SDS011;6343;50.868;4.700;2023-06-24T11:15:33;3.70;;;1.80;;
12554;SDS011;6343;50.868;4.700;2023-06-24T11:18:01;2.20;;;1.52;;
12554;SDS011;6343;50.868;4.700;2023-06-24T11:20:30;3.05;;;1.55;;
12554;SDS011;6343;50.868;4.700;2023-06-24T11:22:56;2.85;;;2.00;;
12554;SDS011;6343;50.868;4.700;2023-06-24T11:25:22;2.53;;;1.55;;
12554;SDS011;6343;50.868;4.700;2023-06-24T11:27:51;2.75;;;1.77;;
12554;SDS011;6343;50.868;4.700;2023-06-24T11:30:20;2.05;;;1.42;;
12554;SDS011;6343;50.868;4.700;2023-06-24T11:32:46;2.35;;;1.60;;
12554;SDS011;6343;50.868;4.700;2023-06-24T11:35:13;2.20;;;1.58;;
12554;SDS011;6343;50.868;4.700;2023-06-24T11:37:45;1.67;;;1.58;;
12554;SDS011;6343;50.868;4.700;2023-06-24T11:40:12;2.80;;;1.80;;
12554;SDS011;6343;50.868;4.700;2023-06-24T11:42:39;2.00;;;1.80;;
12554;SDS011;6343;50.868;4.700;2023-06-24T11:45:06;2.28;;;1.63;;
12554;SDS011;6343;50.868;4.700;2023-06-24T11:47:33;4.10;;;1.48;;
12554;SDS011;6343;50.868;4.700;2023-06-24T11:50:00;2.30;;;2.10;;
12554;SDS011;6343;50.868;4.700;2023-06-24T11:57:55;3.50;;;1.42;;
12554;SDS011;6343;50.868;4.700;2023-06-24T12:00:25;3.53;;;1.67;;
12554;SDS011;6343;50.868;4.700;2023-06-24T12:02:53;3.03;;;1.52;;
12554;SDS011;6343;50.868;4.700;2023-06-24T12:05:20;7.55;;;1.77;;
12554;SDS011;6343;50.868;4.700;2023-06-24T12:07:51;2.13;;;1.65;;
12554;SDS011;6343;50.868;4.700;2023-06-24T12:10:17;2.28;;;1.60;;
12554;SDS011;6343;50.868;4.700;2023-06-24T12:12:43;2.15;;;1.80;;
12554;SDS011;6343;50.868;4.700;2023-06-24T12:15:09;4.50;;;1.90;;
12554;SDS011;6343;50.868;4.700;2023-06-24T12:17:35;2.35;;;1.75;;
12554;SDS011;6343;50.868;4.700;2023-06-24T12:20:01;2.38;;;1.60;;
12554;SDS011;6343;50.868;4.700;2023-06-24T12:22:28;2.45;;;2.10;;
12554;SDS011;6343;50.868;4.700;2023-06-24T12:24:54;2.95;;;1.73;;
12554;SDS011;6343;50.868;4.700;2023-06-24T12:27:20;2.45;;;1.52;;
12554;SDS011;6343;50.868;4.700;2023-06-24T12:29:46;3.75;;;1.70;;
12554;SDS011;6343;50.868;4.700;2023-06-24T12:32:12;2.85;;;1.55;;
12554;SDS011;6343;50.868;4.700;2023-06-24T12:34:38;2.88;;;1.70;;
12554;SDS011;6343;50.868;4.700;2023-06-24T12:37:04;5.18;;;1.70;;
12554;SDS011;6343;50.868;4.700;2023-06-24T12:39:30;1.92;;;1.70;;
12554;SDS011;6343;50.868;4.700;2023-06-24T12:41:57;3.08;;;1.65;;
12554;SDS011;6343;50.868;4.700;2023-06-24T12:44:23;1.90;;;1.70;;
12554;SDS011;6343;50.868;4.700;2023-06-24T12:46:49;2.40;;;1.70;;
12554;SDS011;6343;50.868;4.700;2023-06-24T12:49:15;4.10;;;1.73;;
12554;SDS011;6343;50.868;4.700;2023-06-24T12:51:41;2.40;;;2.10;;
12554;SDS011;6343;50.868;4.700;2023-06-24T12:54:07;2.00;;;1.80;;
12554;SDS011;6343;50.868;4.700;2023-06-24T12:56:34;2.50;;;1.90;;
12554;SDS011;6343;50.868;4.700;2023-06-24T12:59:00;3.58;;;2.10;;
12554;SDS011;6343;50.868;4.700;2023-06-24T13:01:26;4.90;;;1.88;;
12554;SDS011;6343;50.868;4.700;2023-06-24T13:03:52;2.63;;;2.00;;
12554;SDS011;6343;50.868;4.700;2023-06-24T13:06:18;2.83;;;2.05;;
12554;SDS011;6343;50.868;4.700;2023-06-24T13:08:44;1.92;;;1.70;;
12554;SDS011;6343;50.868;4.700;2023-06-24T13:11:10;3.35;;;1.70;;
12554;SDS011;6343;50.868;4.700;2023-06-24T13:13:37;2.30;;;1.75;;
12554;SDS011;6343;50.868;4.700;2023-06-24T13:16:03;3.17;;;2.08;;
12554;SDS011;6343;50.868;4.700;2023-06-24T13:18:29;2.33;;;1.92;;
12554;SDS011;6343;50.868;4.700;2023-06-24T13:20:55;2.13;;;1.58;;
12554;SDS011;6343;50.868;4.700;2023-06-24T13:23:21;3.92;;;1.67;;
12554;SDS011;6343;50.868;4.700;2023-06-24T13:25:47;3.45;;;2.00;;
12554;SDS011;6343;50.868;4.700;2023-06-24T13:28:13;2.05;;;1.83;;
12554;SDS011;6343;50.868;4.700;2023-06-24T13:30:39;3.05;;;1.67;;
12554;SDS011;6343;50.868;4.700;2023-06-24T13:33:05;3.20;;;2.20;;
12554;SDS011;6343;50.868;4.700;2023-06-24T13:35:31;2.70;;;2.20;;
12554;SDS011;6343;50.868;4.700;2023-06-24T13:37:57;2.33;;;1.95;;
12554;SDS011;6343;50.868;4.700;2023-06-24T13:40:24;2.88;;;1.73;;
12554;SDS011;6343;50.868;4.700;2023-06-24T13:42:50;2.72;;;1.67;;
12554;SDS011;6343;50.868;4.700;2023-06-24T13:45:16;2.30;;;2.08;;
12554;SDS011;6343;50.868;4.700;2023-06-24T13:47:42;3.75;;;2.15;;
12554;SDS011;6343;50.868;4.700;2023-06-24T13:50:08;3.15;;;1.52;;
12554;SDS011;6343;50.868;4.700;2023-06-24T13:52:34;4.03;;;2.38;;
12554;SDS011;6343;50.868;4.700;2023-06-24T13:55:01;3.97;;;1.85;;
12554;SDS011;6343;50.868;4.700;2023-06-24T13:57:27;5.10;;;2.30;;
12554;SDS011;6343;50.868;4.700;2023-06-24T13:59:53;3.22;;;2.28;;
12554;SDS011;6343;50.868;4.700;2023-06-24T14:02:19;4.47;;;2.58;;
12554;SDS011;6343;50.868;4.700;2023-06-24T14:04:45;2.95;;;2.10;;
12554;SDS011;6343;50.868;4.700;2023-06-24T14:07:13;3.58;;;2.30;;
12554;SDS011;6343;50.868;4.700;2023-06-24T14:09:39;2.25;;;1.88;;
12554;SDS011;6343;50.868;4.700;2023-06-24T14:12:05;3.22;;;1.83;;
12554;SDS011;6343;50.868;4.700;2023-06-24T14:16:58;2.03;;;1.83;;
12554;SDS011;6343;50.868;4.700;2023-06-24T14:19:24;2.75;;;2.03;;
12554;SDS011;6343;50.868;4.700;2023-06-24T14:21:50;1.85;;;1.63;;
12554;SDS011;6343;50.868;4.700;2023-06-24T14:24:16;3.15;;;2.25;;
12554;SDS011;6343;50.868;4.700;2023-06-24T14:26:42;2.00;;;1.80;;
12554;SDS011;6343;50.868;4.700;2023-06-24T14:29:09;4.28;;;2.00;;
12554;SDS011;6343;50.868;4.700;2023-06-24T14:31:35;2.60;;;1.88;;
12554;SDS011;6343;50.868;4.700;2023-06-24T14:34:01;6.18;;;3.63;;
12554;SDS011;6343;50.868;4.700;2023-06-24T14:36:27;2.13;;;1.70;;
12554;SDS011;6343;50.868;4.700;2023-06-24T14:38:53;1.98;;;1.67;;
12554;SDS011;6343;50.868;4.700;2023-06-24T14:41:19;1.83;;;1.67;;
12554;SDS011;6343;50.868;4.700;2023-06-24T14:43:45;2.92;;;2.00;;
12554;SDS011;6343;50.868;4.700;2023-06-24T14:46:11;3.10;;;2.17;;
12554;SDS011;6343;50.868;4.700;2023-06-24T14:48:37;2.15;;;1.77;;
12554;SDS011;6343;50.868;4.700;2023-06-24T14:51:03;3.03;;;1.80;;
12554;SDS011;6343;50.868;4.700;2023-06-24T14:53:29;2.80;;;2.10;;
12554;SDS011;6343;50.868;4.700;2023-06-24T14:55:56;4.40;;;2.22;;
12554;SDS011;6343;50.868;4.700;2023-06-24T14:58:22;4.80;;;1.70;;
12554;SDS011;6343;50.868;4.700;2023-06-24T15:00:48;2.03;;;1.80;;
12554;SDS011;6343;50.868;4.700;2023-06-24T15:03:14;2.33;;;2.10;;
12554;SDS011;6343;50.868;4.700;2023-06-24T15:05:40;2.95;;;2.20;;
12554;SDS011;6343;50.868;4.700;2023-06-24T15:08:06;2.15;;;1.95;;
12554;SDS011;6343;50.868;4.700;2023-06-24T15:10:32;2.92;;;2.05;;
12554;SDS011;6343;50.868;4.700;2023-06-24T15:12:58;2.80;;;2.22;;
12554;SDS011;6343;50.868;4.700;2023-06-24T15:15:24;2.47;;;2.20;;
12554;SDS011;6343;50.868;4.700;2023-06-24T15:17:50;1.83;;;1.67;;
12554;SDS011;6343;50.868;4.700;2023-06-24T15:20:16;2.88;;;2.00;;
12554;SDS011;6343;50.868;4.700;2023-06-24T15:22:42;2.83;;;1.88;;
12554;SDS011;6343;50.868;4.700;2023-06-24T15:25:08;2.00;;;1.80;;
12554;SDS011;6343;50.868;4.700;2023-06-24T15:27:35;4.78;;;1.80;;